ADDS TAF Board INFO
 
 

IDs: Format: Expanded Condensed

KDFW - Dallas-Ft Worth Intl, TX, US

Issued at 0903 UTC 23 Jul 2014
Time0853Z23/10Z23/11Z23/12Z23/13Z23/14Z23/15Z23/16Z23/17Z23/18Z23/19Z23/20Z23/21Z23/22Z
TypeOBSPRVLPRVLPRVLPRVLPRVLPRVLPRVLPRVLPRVLPRVLPRVLPRVLPRVL
Vis10>6>6>6>6>6>6>6>6>6>6>6>6>6
Cig----------------------------
CoverCLRSKCSKCSKCSKCSKCSKCSKCSKCSKCSKCSKCSKCSKC
FltCat--VFRVFRVFRVFRVFRVFRVFRVFRVFRVFRVFRVFRVFR
Wx----------------------------
WDir14070707070707070707070707070
WSpd48888888888888
WGst----------------------------
R13/31
XWnd-07777777777777
HWnd43333333333333
R17/35
XWnd38888888888888
HWnd3-3-3-3-3-3-3-3-3-3-3-3-3-3
R18/36
XWnd38888888888888
HWnd3-3-3-3-3-3-3-3-3-3-3-3-3-3
Raw TAF
KDFW 230903Z 2309/2412 07008KT P6SM SKC
  FM240200 08005KT P6SM VCTS SCT060CB
  FM240400 VRB03KT P6SM FEW060 BKN150


Raw METAR
KDFW 230853Z 14004KT 10SM CLR 26/21 A3008 RMK AO2 SLP175 T02560206 53003 $

TAF Board Legend

Hazard Green Yellow Red Magenta
Visibility (sm) >5 >2.99 >0.99 <=0.99
Ceiling (100 ft) >30 >9.99 >4.99 <=4.99
Wind Speed (kt) <10 <20 <30 >=30
Wind Gust (kt) <10 <20 <30 >=30
Weather No Wx Reported Light precipitation Moderate precipitation Heavy precipitation
Flight Category VFR MVFR IFR LIFR

Page loaded:  09:52 UTC  |   02:52 AM Pacific  |   03:52 AM Mountain  |   04:52 AM Central  |   05:52 AM Eastern

 

ADVISORIES

FORECASTS

FORECASTS

OBSERVATIONS

USER TOOLS

ABOUT US